Flight Track Log - Related Links

Times and Time Zones

All times are in EDT time to prevent confusion due to time zone crossing. See the EJA951 flight status page for this flight to view local times or setup timezone preferences in your user account.

Time Position Orientation Groundspeed Altitude Reporting Facility
EDT Latitude Longitude Course Direction KTS MPH feet Rate Location/Type
Tue 10:12:09 PM 41.6908 -87.8519 213° Southwest 216 249 5,700  Level Chicago Center
Tue 10:13:11 PM 41.6214 -87.9292 220° Southwest 272 313 8,800 2,049 Climbing Chicago Center
Tue 10:14:12 PM 41.5594 -88.0003 221° Southwest 293 337 9,900 1,366 Climbing Chicago Center
Tue 10:15:14 PM 41.4939 -88.0583 214° Southwest 288 331 11,600 1,610 Climbing Chicago Center
Tue 10:16:00 PM 41.2144 -88.2547 191° South  Level FlightAware Approximate
Tue 10:16:15 PM 41.4122 -88.0625 182° South 291 335 13,200  Level Chicago Center
Tue 10:17:17 PM 41.3178 -88.0683 183° South 308 354 15,100 1,805 Climbing Chicago Center
Tue 10:18:18 PM 41.2272 -88.0867 189° South 323 372 16,900 1,574 Climbing Chicago Center
Tue 10:19:19 PM 41.1336 -88.1117 191° South 339 390 18,300 1,561 Climbing Chicago Center
Tue 10:20:21 PM 41.0378 -88.1444 194° South 353 406 20,100 1,756 Climbing Chicago Center
Tue 10:21:22 PM 40.9386 -88.1750 193° South 364 419 21,900 1,805 Climbing Chicago Center
Tue 10:22:24 PM 40.8367 -88.2078 194° South 376 433 23,800 2,000 Climbing Chicago Center
Tue 10:23:25 PM 40.7119 -88.2492 194° South 385 443 26,000 1,902 Climbing Chicago Center
Tue 10:24:27 PM 40.6039 -88.2822 193° South 399 459 27,700 1,561 Climbing Chicago Center
Tue 10:25:28 PM 40.5028 -88.3414 204° Southwest 406 467 29,200 1,525 Climbing Chicago Center
Tue 10:26:29 PM 40.4219 -88.4525 226° Southwest 418 481 30,800 1,512 Climbing Chicago Center
Tue 10:27:31 PM 40.3392 -88.5653 226° Southwest 427 491 32,300 1,512 Climbing Chicago Center
Tue 10:28:32 PM 40.2519 -88.6806 225° Southwest 438 504 33,900 1,561 Climbing Chicago Center
Tue 10:29:34 PM 40.1639 -88.7975 225° Southwest 448 516 35,500 1,561 Climbing Chicago Center
Tue 10:30:35 PM 40.0753 -88.9147 225° Southwest 451 519 37,100 1,623 Climbing Chicago Center
Tue 10:31:36 PM 39.9856 -89.0331 225° Southwest 455 524 38,800 1,268 Climbing Chicago Center
Tue 10:32:38 PM 39.8961 -89.1506 225° Southwest 454 522 39,700 585 Climbing Chicago Center
Tue 10:33:39 PM 39.7825 -89.3003 225° Southwest 480 552 40,000 148 Climbing Chicago Center
Tue 10:34:40 PM 39.6869 -89.4333 227° Southwest 495 570 40,000  Level Chicago Center
Tue 10:35:42 PM 39.6033 -89.5567 229° Southwest 509 586 40,000  Level Kansas City Center
Tue 10:36:44 PM 39.5086 -89.6961 229° Southwest 516 594 40,000  Level Kansas City Center
Tue 10:37:46 PM 39.3958 -89.8642 229° Southwest 517 595 40,000  Level Kansas City Center
Tue 10:38:47 PM 39.3006 -90.0019 228° Southwest 517 595 40,000  Level Kansas City Center
Tue 10:39:48 PM 39.2053 -90.1400 228° Southwest 517 595 40,000  Level Kansas City Center
Tue 10:40:50 PM 39.1117 -90.2775 229° Southwest 516 594 40,000  Level Kansas City Center
Tue 10:41:50 PM 39.0164 -90.4150 228° Southwest 520 598 40,000  Level Kansas City Center
Tue 10:42:50 PM 38.9189 -90.5567 229° Southwest 514 592 40,000  Level Kansas City Center
Tue 10:43:53 PM 38.8281 -90.6850 228° Southwest 517 595 40,000  Level Kansas City Center
Tue 10:44:54 PM 38.7131 -90.8456 227° Southwest 517 595 40,000  Level Kansas City Center
Tue 10:45:55 PM 38.6175 -90.9781 227° Southwest 514 592 40,000  Level Kansas City Center
Tue 10:46:55 PM 38.5247 -91.1108 228° Southwest 508 585 40,000  Level Kansas City Center
Tue 10:47:59 PM 38.4283 -91.2453 228° Southwest 512 589 40,000  Level Kansas City Center
Tue 10:48:59 PM 38.3206 -91.3933 227° Southwest 510 587 40,000  Level Kansas City Center
Tue 10:50:01 PM 38.2253 -91.5236 227° Southwest 501 577 40,000  Level Kansas City Center
Tue 10:51:00 PM 38.1300 -91.6558 228° Southwest 503 579 40,000  Level Kansas City Center
Tue 10:52:03 PM 38.0336 -91.7889 227° Southwest 506 582 40,000  Level Kansas City Center
Tue 10:53:04 PM 37.9372 -91.9200 227° Southwest 504 580 40,000 -293 Level Kansas City Center
Tue 10:54:06 PM 37.8386 -92.0528 227° Southwest 508 585 39,400 -1,258 Descending Kansas City Center
Tue 10:55:08 PM 37.7403 -92.1858 227° Southwest 505 581 37,400 -1,756 Descending Kansas City Center
Tue 10:56:09 PM 37.6467 -92.3139 227° Southwest 497 572 35,800 -1,672 Descending Kansas City Center
Tue 10:57:10 PM 37.5536 -92.4378 227° Southwest 486 559 34,000 -1,835 Descending Kansas City Center
Tue 10:58:10 PM 37.4561 -92.5722 228° Southwest 513 590 32,100 -2,430 Descending Kansas City Center
Tue 10:59:11 PM 37.3575 -92.7006 226° Southwest 502 578 29,100 -2,951 Descending Kansas City Center
Tue 11:00:12 PM 37.2586 -92.8269 226° Southwest 501 577 26,100 -3,098 Descending Kansas City Center
Tue 11:01:13 PM 37.1664 -92.9494 227° Southwest 488 562 22,800 -3,246 Descending Kansas City Center
Tue 11:02:14 PM 37.0769 -93.0681 227° Southwest 474 545 19,500 -3,098 Descending Kansas City Center
Tue 11:03:15 PM 36.9911 -93.1825 227° Southwest 458 527 16,500 -3,048 Descending Kansas City Center
Tue 11:04:18 PM 36.9089 -93.2906 226° Southwest 442 509 13,200 -3,122 Descending Kansas City Center
Tue 11:05:18 PM 36.8281 -93.3936 226° Southwest 427 491 10,100 -1,587 Descending Kansas City Center
Tue 11:06:19 PM 36.7386 -93.5061 225° Southwest 396 456 10,000 -49 Descending Kansas City Center
Tue 11:07:21 PM 36.6600 -93.6044 225° Southwest 398 458 10,000  Level Kansas City Center
Tue 11:08:22 PM 36.6053 -93.7197 239° Southwest 393 452 10,000  Level Kansas City Center
Tue 11:09:22 PM 36.5647 -93.8331 246° West 385 443 10,000  Level Kansas City Center
Tue 11:10:23 PM 36.5233 -93.9436 245° Southwest 361 415 10,000 -689 Level Kansas City Center
Tue 11:11:24 PM 36.4894 -94.0364 246° West 312 359 8,600 -1,887 Descending Kansas City Center
Tue 11:12:27 PM 36.4592 -94.1222 246° West 282 325 6,100 -2,488 Descending Kansas City Center
Tue 11:13:27 PM 36.4217 -94.2233 245° Southwest 273 314 3,500 -1,537 Descending Kansas City Center
Tue 11:14:28 PM 36.3928 -94.2972 244° Southwest 253 291 3,000 -545 Descending Kansas City Center
Tue 11:15:28 PM 36.3514 -94.3275 211° Southwest 205 236 2,400 -595 Descending Kansas City Center
Tue 11:16:29 PM 36.3139 -94.3233 175° South 175 201 1,800 -435 Descending Kansas City Center
Tue 11:17:32 PM 36.2833 -94.3061 156° South 162 186 1,500 -286 Descending Kansas City Center

Login

Don't have an account? Register now (free) for customized features, flight alerts, and more!